createdAt,value
2017-12-01T00:00:03.782Z,0
2017-12-01T00:01:03.753Z,0
2017-12-01T00:02:03.997Z,0
2017-12-01T00:03:03.742Z,0
2017-12-01T00:04:03.977Z,0
2017-12-01T00:05:03.441Z,0
2017-12-01T00:06:03.953Z,0
2017-12-01T00:07:03.928Z,0
2017-12-01T00:08:03.917Z,0
2017-12-01T00:09:03.906Z,0
2017-12-01T00:10:03.962Z,0
2017-12-01T00:11:03.405Z,0
2017-12-01T00:12:03.590Z,0
2017-12-01T00:13:03.596Z,0
2017-12-01T00:14:03.815Z,0
2017-12-01T00:15:03.551Z,0
2017-12-01T00:16:03.804Z,0
2017-12-01T00:17:03.794Z,0
2017-12-01T00:18:03.779Z,0
2017-12-01T00:19:03.764Z,0
2017-12-01T00:20:03.487Z,0
2017-12-01T00:21:03.723Z,0
2017-12-01T00:22:03.692Z,0
2017-12-01T00:23:03.699Z,0
2017-12-01T00:24:03.678Z,0
2017-12-01T00:25:03.406Z,0
2017-12-01T00:26:03.655Z,0
2017-12-01T00:27:03.363Z,0
2017-12-01T00:28:03.622Z,0
2017-12-01T00:29:03.615Z,0
2017-12-01T00:30:03.337Z,0
2017-12-01T00:31:03.591Z,0
2017-12-01T00:32:03.559Z,0
2017-12-01T00:33:03.290Z,0
2017-12-01T00:34:03.268Z,0
2017-12-01T00:35:03.510Z,0
2017-12-01T00:36:03.504Z,0
2017-12-01T00:37:03.502Z,0
2017-12-01T00:38:03.203Z,0
2017-12-01T00:39:03.500Z,0
2017-12-01T00:40:03.443Z,0
2017-12-01T00:41:03.492Z,0
2017-12-01T00:42:03.420Z,0
2017-12-01T00:43:03.406Z,0
2017-12-01T00:44:03.382Z,0
2017-12-01T00:45:03.385Z,0
2017-12-01T00:46:03.349Z,0
2017-12-01T00:47:03.081Z,0
2017-12-01T00:48:03.312Z,0
2017-12-01T00:49:03.366Z,0
2017-12-01T00:50:03.042Z,0
2017-12-01T00:51:03.293Z,0
2017-12-01T00:52:03.056Z,0
2017-12-01T00:53:02.994Z,0
2017-12-01T00:54:03.241Z,0
2017-12-01T00:55:03.242Z,0
2017-12-01T00:56:03.236Z,0
2017-12-01T00:57:03.241Z,0
2017-12-01T00:58:03.183Z,0
2017-12-01T00:59:03.151Z,0
2017-12-01T01:00:03.133Z,0
2017-12-01T01:01:03.138Z,0
2017-12-01T01:02:03.118Z,0
2017-12-01T01:03:03.097Z,0
2017-12-01T01:04:03.090Z,0
2017-12-01T01:05:03.071Z,0
2017-12-01T01:06:03.058Z,0
2017-12-01T01:07:03.033Z,0
2017-12-01T01:08:03.022Z,0
2017-12-01T01:09:03.080Z,0
2017-12-01T01:10:02.997Z,0
2017-12-01T01:11:02.984Z,0
2017-12-01T01:12:02.978Z,0
2017-12-01T01:13:02.980Z,0
2017-12-01T01:14:02.932Z,0
2017-12-01T01:15:02.922Z,0
2017-12-01T01:16:02.917Z,0
2017-12-01T01:17:02.910Z,0
2017-12-01T01:18:02.881Z,0
2017-12-01T01:19:02.870Z,0
2017-12-01T01:20:02.851Z,0
2017-12-01T01:21:02.578Z,0
2017-12-01T01:22:02.825Z,0
2017-12-01T01:23:02.800Z,0
2017-12-01T01:24:02.546Z,0
2017-12-01T01:25:02.802Z,0
2017-12-01T01:26:02.495Z,0
2017-12-01T01:27:02.784Z,0
2017-12-01T01:28:02.763Z,0
2017-12-01T01:29:02.737Z,0
2017-12-01T01:30:02.731Z,0
2017-12-01T01:31:02.749Z,0
2017-12-01T01:32:02.427Z,0
2017-12-01T01:33:02.689Z,0
2017-12-01T01:34:02.655Z,0
2017-12-01T01:35:02.639Z,0
2017-12-01T01:36:02.731Z,0
2017-12-01T01:37:02.616Z,0
2017-12-01T01:38:02.603Z,0
2017-12-01T01:39:02.309Z,0
2017-12-01T01:40:02.553Z,0
2017-12-01T01:41:02.547Z,0
2017-12-01T01:42:02.540Z,0
2017-12-01T01:43:02.527Z,0
2017-12-01T01:44:02.296Z,0
2017-12-01T01:45:02.559Z,0
2017-12-01T01:46:02.491Z,0
2017-12-01T01:47:02.471Z,0
2017-12-01T01:48:02.504Z,0
2017-12-01T01:49:01.678Z,0
2017-12-01T01:50:02.171Z,0
2017-12-01T01:51:02.408Z,0
2017-12-01T01:52:02.397Z,0
2017-12-01T01:53:02.380Z,0
2017-12-01T01:54:02.374Z,0
2017-12-01T01:55:02.091Z,0
2017-12-01T01:56:02.350Z,0
2017-12-01T01:57:02.332Z,0
2017-12-01T01:58:02.315Z,0
2017-12-01T01:59:02.307Z,0
2017-12-01T02:00:02.275Z,0
2017-12-01T02:01:02.282Z,0
2017-12-01T02:02:02.238Z,0
2017-12-01T02:03:02.241Z,0
2017-12-01T02:04:02.222Z,0
2017-12-01T02:05:02.235Z,0
2017-12-01T02:06:02.262Z,0
2017-12-01T02:07:02.178Z,0
2017-12-01T02:08:01.919Z,0
2017-12-01T02:09:02.153Z,0
2017-12-01T02:10:02.145Z,0
2017-12-01T02:11:01.873Z,0
2017-12-01T02:12:02.123Z,0
2017-12-01T02:13:02.104Z,0
2017-12-01T02:14:02.096Z,0
2017-12-01T02:15:02.071Z,0
2017-12-01T02:16:02.070Z,0
2017-12-01T02:17:02.050Z,0
2017-12-01T02:18:02.045Z,0
2017-12-01T02:19:02.020Z,0
2017-12-01T02:20:02.014Z,0
2017-12-01T02:21:01.978Z,0
2017-12-01T02:22:01.722Z,0
2017-12-01T02:23:01.952Z,0
2017-12-01T02:24:01.938Z,0
2017-12-01T02:25:01.684Z,0
2017-12-01T02:26:01.920Z,0
2017-12-01T02:27:01.896Z,0
2017-12-01T02:28:01.628Z,0
2017-12-01T02:29:01.879Z,0
2017-12-01T02:30:01.864Z,0
2017-12-01T02:31:01.641Z,0
2017-12-01T02:32:01.845Z,0
2017-12-01T02:33:01.811Z,0
2017-12-01T02:34:01.822Z,0
2017-12-01T02:35:01.786Z,0
2017-12-01T02:36:01.786Z,0
2017-12-01T02:37:01.770Z,0
2017-12-01T02:38:01.765Z,0
2017-12-01T02:39:01.746Z,0
2017-12-01T02:40:01.722Z,0
2017-12-01T02:41:01.705Z,0
2017-12-01T02:42:01.702Z,0
2017-12-01T02:43:01.697Z,0
2017-12-01T02:44:01.681Z,0
2017-12-01T02:45:01.659Z,0
2017-12-01T02:46:01.665Z,0
2017-12-01T02:47:01.658Z,0
2017-12-01T02:48:01.655Z,0
2017-12-01T02:49:01.080Z,0
2017-12-01T02:50:01.597Z,0
2017-12-01T02:51:01.649Z,0
2017-12-01T02:52:01.589Z,0
2017-12-01T02:53:01.575Z,0
2017-12-01T02:54:01.523Z,0
2017-12-01T02:55:01.497Z,0
2017-12-01T02:56:01.497Z,0
2017-12-01T02:57:01.485Z,0
2017-12-01T02:58:01.471Z,0
2017-12-01T02:59:01.182Z,0
2017-12-01T03:00:01.172Z,0
2017-12-01T03:01:01.400Z,0
2017-12-01T03:02:01.403Z,0
2017-12-01T03:03:01.400Z,0
2017-12-01T03:04:01.361Z,0
2017-12-01T03:05:01.102Z,0
2017-12-01T03:06:01.346Z,0
2017-12-01T03:07:01.313Z,0
2017-12-01T03:08:01.317Z,0
2017-12-01T03:09:01.030Z,0
2017-12-01T03:10:01.290Z,0
2017-12-01T03:11:01.263Z,0
2017-12-01T03:12:00.996Z,0
2017-12-01T03:13:01.232Z,0
2017-12-01T03:14:00.964Z,0
2017-12-01T03:15:01.197Z,0
2017-12-01T03:16:01.196Z,0
2017-12-01T03:17:01.182Z,0
2017-12-01T03:18:01.167Z,0
2017-12-01T03:19:01.156Z,0
2017-12-01T03:20:01.137Z,0
2017-12-01T03:21:00.913Z,0
2017-12-01T03:22:01.109Z,0
2017-12-01T03:23:01.087Z,0
2017-12-01T03:24:01.082Z,0
2017-12-01T03:25:01.075Z,0
2017-12-01T03:26:01.053Z,0
2017-12-01T03:27:01.025Z,0
2017-12-01T03:28:01.022Z,0
2017-12-01T03:29:01.000Z,0
2017-12-01T03:30:00.993Z,0
2017-12-01T03:31:00.988Z,0
2017-12-01T03:32:00.964Z,0
2017-12-01T03:33:00.945Z,0
2017-12-01T03:34:00.932Z,0
2017-12-01T03:35:00.914Z,0
2017-12-01T03:36:00.906Z,0
2017-12-01T03:37:00.915Z,0
2017-12-01T03:38:00.894Z,0
2017-12-01T03:39:00.610Z,0
2017-12-01T03:40:00.844Z,0
2017-12-01T03:41:00.925Z,0
2017-12-01T03:42:00.594Z,0
2017-12-01T03:43:00.849Z,0
2017-12-01T03:44:00.536Z,0
2017-12-01T03:45:00.771Z,0
2017-12-01T03:46:00.763Z,0
2017-12-01T03:47:00.480Z,0
2017-12-01T03:48:00.721Z,0
2017-12-01T03:49:00.713Z,0
2017-12-01T03:50:00.684Z,0
2017-12-01T03:51:00.666Z,0
2017-12-01T03:52:00.665Z,0
2017-12-01T03:53:00.644Z,0
2017-12-01T03:54:00.629Z,0
2017-12-01T03:55:00.610Z,0
2017-12-01T03:56:00.344Z,0
2017-12-01T03:57:00.585Z,0
2017-12-01T03:58:00.564Z,0
2017-12-01T03:59:00.555Z,0
2017-12-01T04:00:00.531Z,0
2017-12-01T04:01:00.526Z,0
2017-12-01T04:02:00.509Z,0
2017-12-01T04:03:00.535Z,0
2017-12-01T04:04:00.489Z,0
2017-12-01T04:05:00.467Z,0
2017-12-01T04:06:00.438Z,0
2017-12-01T04:07:00.426Z,0
2017-12-01T04:08:00.428Z,0
2017-12-01T04:09:00.397Z,0
2017-12-01T04:10:00.392Z,0
2017-12-01T04:11:00.380Z,0
2017-12-01T04:12:00.356Z,0
2017-12-01T04:13:00.453Z,0
2017-12-01T04:14:00.324Z,0
2017-12-01T04:15:00.324Z,0
2017-12-01T04:16:00.068Z,0
2017-12-01T04:17:00.289Z,0
2017-12-01T04:18:00.049Z,0
2017-12-01T04:18:59.991Z,0
2017-12-01T04:20:00.230Z,0
2017-12-01T04:21:00.225Z,0
2017-12-01T04:22:00.202Z,0
2017-12-01T04:23:00.188Z,0
2017-12-01T04:24:00.182Z,0
2017-12-01T04:25:00.163Z,0
2017-12-01T04:26:00.149Z,0
2017-12-01T04:26:59.887Z,0
2017-12-01T04:28:00.114Z,0
2017-12-01T04:29:00.106Z,0
2017-12-01T04:30:00.098Z,0
2017-12-01T04:30:59.871Z,0
2017-12-01T04:32:00.091Z,0
2017-12-01T04:32:59.794Z,0
2017-12-01T04:34:00.046Z,0
2017-12-01T04:35:00.030Z,0
2017-12-01T04:36:00.029Z,0
2017-12-01T04:37:00.030Z,0
2017-12-01T04:38:00.013Z,0
2017-12-01T04:38:59.954Z,0
2017-12-01T04:40:00.008Z,0
2017-12-01T04:40:59.920Z,0
2017-12-01T04:41:59.909Z,0
2017-12-01T04:42:59.900Z,0
2017-12-01T04:43:59.885Z,0
2017-12-01T04:44:59.864Z,0
2017-12-01T04:45:59.846Z,0
2017-12-01T04:46:59.586Z,0
2017-12-01T04:47:59.584Z,0
2017-12-01T04:48:59.809Z,0
2017-12-01T04:49:59.546Z,0
2017-12-01T04:50:59.783Z,0
2017-12-01T04:51:59.510Z,0
2017-12-01T04:52:59.750Z,0
2017-12-01T04:53:59.722Z,0
2017-12-01T04:54:59.731Z,0
2017-12-01T04:55:59.693Z,0
2017-12-01T04:56:59.806Z,0
2017-12-01T04:57:59.686Z,0
2017-12-01T04:58:59.671Z,0
2017-12-01T04:59:59.643Z,0
2017-12-01T05:00:59.643Z,0
2017-12-01T05:01:59.612Z,0
2017-12-01T05:02:59.606Z,0
2017-12-01T05:03:59.086Z,0
2017-12-01T05:04:59.577Z,0
2017-12-01T05:05:59.568Z,0
2017-12-01T05:06:59.557Z,0
2017-12-01T05:07:59.538Z,0
2017-12-01T05:08:59.277Z,0
2017-12-01T05:09:59.517Z,0
2017-12-01T05:10:59.244Z,0
2017-12-01T05:11:59.479Z,0
2017-12-01T05:12:59.213Z,0
2017-12-01T05:13:59.464Z,0
2017-12-01T05:14:59.454Z,0
2017-12-01T05:15:59.163Z,0
2017-12-01T05:16:59.395Z,0
2017-12-01T05:17:59.148Z,0
2017-12-01T05:18:59.374Z,0
2017-12-01T05:19:59.345Z,0
2017-12-01T05:20:59.366Z,0
2017-12-01T05:21:59.340Z,0
2017-12-01T05:22:59.310Z,0
2017-12-01T05:23:59.305Z,0
2017-12-01T05:24:59.300Z,0
2017-12-01T05:25:59.270Z,0
2017-12-01T05:26:59.320Z,0
2017-12-01T05:27:59.257Z,0
2017-12-01T05:28:59.215Z,0
2017-12-01T05:29:59.225Z,0
2017-12-01T05:30:59.209Z,0
2017-12-01T05:31:59.187Z,0
2017-12-01T05:32:59.183Z,0
2017-12-01T05:33:59.161Z,0
2017-12-01T05:34:59.158Z,0
2017-12-01T05:35:58.886Z,0
2017-12-01T05:36:59.110Z,0
2017-12-01T05:37:59.097Z,0
2017-12-01T05:38:58.835Z,0
2017-12-01T05:39:58.562Z,0
2017-12-01T05:40:59.048Z,0
2017-12-01T05:41:58.540Z,0
2017-12-01T05:42:59.048Z,0
2017-12-01T05:43:59.089Z,0
2017-12-01T05:44:59.022Z,0
2017-12-01T05:45:58.992Z,0
2017-12-01T05:46:58.719Z,0
2017-12-01T05:47:58.962Z,0
2017-12-01T05:48:58.949Z,0
2017-12-01T05:49:58.938Z,0
2017-12-01T05:50:58.910Z,0
2017-12-01T05:51:58.916Z,0
2017-12-01T05:52:58.379Z,0
2017-12-01T05:53:58.932Z,0
2017-12-01T05:54:58.849Z,0
2017-12-01T05:55:58.861Z,0
2017-12-01T05:56:58.828Z,0
2017-12-01T05:57:58.823Z,0
2017-12-01T05:58:58.858Z,0
2017-12-01T05:59:58.794Z,0
2017-12-01T06:00:58.789Z,0
2017-12-01T06:01:58.775Z,0
2017-12-01T06:02:58.521Z,0
2017-12-01T06:03:58.010Z,0
2017-12-01T06:04:58.221Z,0
2017-12-01T06:05:58.710Z,0
2017-12-01T06:06:58.678Z,0
2017-12-01T06:07:58.668Z,0
2017-12-01T06:08:58.681Z,0
2017-12-01T06:09:58.399Z,0
2017-12-01T06:10:58.622Z,0
2017-12-01T06:11:58.624Z,0
2017-12-01T06:12:58.617Z,0
2017-12-01T06:13:58.596Z,0
2017-12-01T06:14:58.580Z,0
2017-12-01T06:15:58.568Z,4
2017-12-01T06:16:58.560Z,4
2017-12-01T06:17:58.266Z,0
2017-12-01T06:18:58.527Z,4
2017-12-01T06:19:58.514Z,4
2017-12-01T06:20:58.259Z,4
2017-12-01T06:21:58.253Z,8
2017-12-01T06:22:58.520Z,4
2017-12-01T06:23:58.465Z,8
2017-12-01T06:24:58.456Z,4
2017-12-01T06:25:58.204Z,8
2017-12-01T06:26:58.172Z,12
2017-12-01T06:27:58.387Z,16
2017-12-01T06:28:58.119Z,16
2017-12-01T06:29:58.109Z,20
2017-12-01T06:30:58.359Z,20
2017-12-01T06:31:58.355Z,28
2017-12-01T06:32:58.065Z,32
2017-12-01T06:33:58.052Z,36
2017-12-01T06:34:58.033Z,40
2017-12-01T06:35:58.272Z,48
2017-12-01T06:36:58.275Z,56
2017-12-01T06:37:58.244Z,64
2017-12-01T06:38:58.229Z,72
2017-12-01T06:39:58.213Z,76
2017-12-01T06:40:58.002Z,84
2017-12-01T06:41:58.185Z,96
2017-12-01T06:42:58.176Z,108
2017-12-01T06:43:58.165Z,116
2017-12-01T06:44:58.143Z,128
2017-12-01T06:45:58.142Z,144
2017-12-01T06:46:57.936Z,164
2017-12-01T06:47:57.928Z,180
2017-12-01T06:48:57.833Z,188
2017-12-01T06:49:57.817Z,200
2017-12-01T06:50:57.807Z,224
2017-12-01T06:51:58.051Z,240
2017-12-01T06:52:57.768Z,260
2017-12-01T06:53:58.003Z,284
2017-12-01T06:54:58.019Z,304
2017-12-01T06:55:57.743Z,324
2017-12-01T06:56:57.972Z,332
2017-12-01T06:57:57.457Z,332
2017-12-01T06:58:57.694Z,340
2017-12-01T06:59:57.971Z,368
2017-12-01T07:00:57.910Z,396
2017-12-01T07:01:57.905Z,408
2017-12-01T07:02:57.910Z,428
2017-12-01T07:03:57.649Z,444
2017-12-01T07:04:57.852Z,452
2017-12-01T07:05:57.850Z,472
2017-12-01T07:06:57.825Z,492
2017-12-01T07:07:57.896Z,504
2017-12-01T07:08:57.792Z,520
2017-12-01T07:09:57.794Z,528
2017-12-01T07:10:57.798Z,556
2017-12-01T07:11:57.749Z,584
2017-12-01T07:12:57.775Z,612
2017-12-01T07:13:57.834Z,636
2017-12-01T07:14:57.714Z,640
2017-12-01T07:15:57.693Z,656
2017-12-01T07:16:57.675Z,692
2017-12-01T07:17:57.662Z,708
2017-12-01T07:18:57.647Z,764
2017-12-01T07:19:57.643Z,812
2017-12-01T07:20:57.608Z,844
2017-12-01T07:21:57.621Z,868
2017-12-01T07:22:57.589Z,880
2017-12-01T07:23:57.562Z,936
2017-12-01T07:24:57.580Z,972
2017-12-01T07:25:57.549Z,1012
2017-12-01T07:26:57.300Z,1032
2017-12-01T07:27:57.005Z,1116
2017-12-01T07:28:57.489Z,1100
2017-12-01T07:29:57.473Z,1128
2017-12-01T07:30:56.954Z,1188
2017-12-01T07:31:57.206Z,1256
2017-12-01T07:32:57.440Z,1284
2017-12-01T07:33:57.191Z,1332
2017-12-01T07:34:57.476Z,1380
2017-12-01T07:35:57.403Z,1420
2017-12-01T07:36:57.397Z,1472
2017-12-01T07:37:56.891Z,1548
2017-12-01T07:38:57.372Z,1596
2017-12-01T07:39:57.091Z,1664
2017-12-01T07:40:57.316Z,1692
2017-12-01T07:41:57.318Z,1836
2017-12-01T07:42:57.308Z,1860
2017-12-01T07:43:57.334Z,1816
2017-12-01T07:44:57.286Z,1908
2017-12-01T07:45:57.039Z,2060
2017-12-01T07:46:56.983Z,2124
2017-12-01T07:47:57.235Z,2012
2017-12-01T07:48:56.956Z,2012
2017-12-01T07:49:56.948Z,1996
2017-12-01T07:50:56.925Z,2060
2017-12-01T07:51:57.189Z,2108
2017-12-01T07:52:57.171Z,2112
2017-12-01T07:53:56.890Z,2136
2017-12-01T07:54:56.891Z,2208
2017-12-01T07:55:56.866Z,2240
2017-12-01T07:56:56.869Z,2228
2017-12-01T07:57:56.870Z,2232
2017-12-01T07:58:56.868Z,2328
2017-12-01T07:59:56.818Z,2508
2017-12-01T08:00:57.059Z,2472
2017-12-01T08:01:57.051Z,2584
2017-12-01T08:02:57.074Z,2752
2017-12-01T08:03:57.006Z,2664
2017-12-01T08:04:57.020Z,2788
2017-12-01T08:05:56.993Z,2932
2017-12-01T08:06:56.981Z,2960
2017-12-01T08:07:56.962Z,3068
2017-12-01T08:08:56.688Z,3128
2017-12-01T08:09:56.926Z,3232
2017-12-01T08:10:56.932Z,3388
2017-12-01T08:11:56.901Z,3608
2017-12-01T08:12:56.893Z,3980
2017-12-01T08:13:56.900Z,3936
2017-12-01T08:14:56.939Z,3988
2017-12-01T08:15:56.580Z,3900
2017-12-01T08:16:56.839Z,3840
2017-12-01T08:17:56.832Z,4032
2017-12-01T08:18:56.871Z,3744
2017-12-01T08:19:56.835Z,3476
2017-12-01T08:20:57.044Z,3572
2017-12-01T08:21:56.817Z,4200
2017-12-01T08:22:56.496Z,4504
2017-12-01T08:23:56.491Z,4000
2017-12-01T08:24:56.479Z,3904
2017-12-01T08:25:56.748Z,3808
2017-12-01T08:26:56.712Z,3744
2017-12-01T08:27:56.439Z,3576
2017-12-01T08:28:56.706Z,3720
2017-12-01T08:29:56.436Z,3684
2017-12-01T08:30:56.733Z,3976
2017-12-01T08:31:56.634Z,4196
2017-12-01T08:32:56.650Z,4704
2017-12-01T08:33:56.608Z,4892
2017-12-01T08:34:56.602Z,5716
2017-12-01T08:35:56.591Z,6424
2017-12-01T08:36:56.343Z,6024
2017-12-01T08:37:56.601Z,6504
2017-12-01T08:38:56.560Z,6656
2017-12-01T08:39:56.511Z,5796
2017-12-01T08:40:56.357Z,5140
2017-12-01T08:41:56.633Z,4816
2017-12-01T08:42:56.815Z,4556
2017-12-01T08:43:56.529Z,4448
2017-12-01T08:44:56.606Z,4376
2017-12-01T08:45:56.535Z,4696
2017-12-01T08:46:56.603Z,4560
2017-12-01T08:47:56.604Z,4536
2017-12-01T08:48:56.584Z,4396
2017-12-01T08:49:56.495Z,4296
2017-12-01T08:50:56.254Z,4160
2017-12-01T08:51:56.178Z,4280
2017-12-01T08:52:56.170Z,4444
2017-12-01T08:53:56.157Z,4364
2017-12-01T08:54:56.395Z,4532
2017-12-01T08:55:56.377Z,4632
2017-12-01T08:56:56.102Z,4644
2017-12-01T08:57:56.364Z,4800
2017-12-01T08:58:56.093Z,5204
2017-12-01T08:59:56.066Z,5348
2017-12-01T09:00:56.308Z,5680
2017-12-01T09:01:56.318Z,6004
2017-12-01T09:02:56.060Z,6432
2017-12-01T09:03:56.252Z,6476
2017-12-01T09:04:55.992Z,6432
2017-12-01T09:05:55.970Z,6488
2017-12-01T09:06:55.938Z,6012
2017-12-01T09:07:56.197Z,5928
2017-12-01T09:08:56.218Z,6104
2017-12-01T09:09:56.225Z,5932
2017-12-01T09:10:56.196Z,5548
2017-12-01T09:11:57.540Z,5128
2017-12-01T09:12:56.158Z,4684
2017-12-01T09:13:55.855Z,4436
2017-12-01T09:14:56.158Z,4196
2017-12-01T09:15:55.874Z,4156
2017-12-01T09:16:56.100Z,4160
2017-12-01T09:17:55.894Z,4208
2017-12-01T09:18:56.165Z,4328
2017-12-01T09:19:56.253Z,4600
2017-12-01T09:20:55.815Z,4568
2017-12-01T09:21:56.027Z,4776
2017-12-01T09:22:56.019Z,5032
2017-12-01T09:23:56.072Z,5140
2017-12-01T09:24:55.706Z,5120
2017-12-01T09:25:55.964Z,5172
2017-12-01T09:26:55.957Z,5360
2017-12-01T09:27:55.945Z,5492
2017-12-01T09:28:55.927Z,5648
2017-12-01T09:29:55.949Z,5768
2017-12-01T09:30:55.992Z,5872
2017-12-01T09:31:55.881Z,5960
2017-12-01T09:32:55.909Z,5832
2017-12-01T09:33:55.898Z,5704
2017-12-01T09:34:55.865Z,6100
2017-12-01T09:35:55.911Z,6520
2017-12-01T09:36:56.067Z,6568
2017-12-01T09:37:55.944Z,6772
2017-12-01T09:38:55.995Z,6972
2017-12-01T09:39:55.854Z,7056
2017-12-01T09:40:55.900Z,6948
2017-12-01T09:41:55.573Z,7216
2017-12-01T09:42:55.772Z,7504
2017-12-01T09:43:55.780Z,7892
2017-12-01T09:44:55.749Z,7872
2017-12-01T09:45:55.775Z,8032
2017-12-01T09:46:55.749Z,7844
2017-12-01T09:47:55.776Z,8188
2017-12-01T09:48:55.468Z,8092
2017-12-01T09:49:55.774Z,8472
2017-12-01T09:50:55.695Z,8060
2017-12-01T09:51:55.422Z,8504
2017-12-01T09:52:55.686Z,9792
2017-12-01T09:53:55.701Z,10000
2017-12-01T09:54:55.645Z,10200
2017-12-01T09:55:55.475Z,10544
2017-12-01T09:56:55.602Z,9788
2017-12-01T09:57:55.630Z,9300
2017-12-01T09:58:55.341Z,8456
2017-12-01T09:59:55.568Z,8568
2017-12-01T10:00:55.569Z,8856
2017-12-01T10:01:55.648Z,9152
2017-12-01T10:02:55.547Z,9800
2017-12-01T10:03:55.274Z,10192
2017-12-01T10:04:55.005Z,9924
2017-12-01T10:05:55.516Z,10012
2017-12-01T10:06:55.496Z,9652
2017-12-01T10:07:55.502Z,8844
2017-12-01T10:08:55.469Z,8976
2017-12-01T10:09:55.205Z,8992
2017-12-01T10:10:55.196Z,9144
2017-12-01T10:11:55.173Z,9260
2017-12-01T10:12:55.217Z,8660
2017-12-01T10:13:55.431Z,8072
2017-12-01T10:14:55.393Z,7396
2017-12-01T10:15:55.387Z,7312
2017-12-01T10:16:55.400Z,7228
2017-12-01T10:17:55.375Z,7436
2017-12-01T10:18:55.369Z,7040
2017-12-01T10:19:55.342Z,6732
2017-12-01T10:20:55.359Z,6636
2017-12-01T10:21:55.340Z,6764
2017-12-01T10:22:55.349Z,6296
2017-12-01T10:23:55.302Z,5864
2017-12-01T10:24:55.357Z,6312
2017-12-01T10:25:55.050Z,6944
2017-12-01T10:26:55.291Z,6896
2017-12-01T10:27:55.274Z,6648
2017-12-01T10:28:55.276Z,6828
2017-12-01T10:29:55.476Z,6896
2017-12-01T10:30:55.253Z,6552
2017-12-01T10:31:55.263Z,6524
2017-12-01T10:32:54.960Z,6856
2017-12-01T10:33:55.273Z,6272
2017-12-01T10:34:55.225Z,5988
2017-12-01T10:35:55.270Z,6368
2017-12-01T10:36:55.216Z,6404
2017-12-01T10:37:55.162Z,6096
2017-12-01T10:38:55.160Z,5880
2017-12-01T10:39:55.165Z,5904
2017-12-01T10:40:55.134Z,6684
2017-12-01T10:41:55.203Z,7028
2017-12-01T10:42:54.874Z,7268
2017-12-01T10:43:55.109Z,6964
2017-12-01T10:44:55.108Z,6712
2017-12-01T10:45:54.814Z,6640
2017-12-01T10:46:55.173Z,6352
2017-12-01T10:47:55.053Z,5832
2017-12-01T10:48:55.128Z,5680
2017-12-01T10:49:55.076Z,5536
2017-12-01T10:50:55.317Z,5436
2017-12-01T10:51:55.085Z,5340
2017-12-01T10:52:55.064Z,5400
2017-12-01T10:53:55.114Z,5452
2017-12-01T10:54:55.248Z,5380
2017-12-01T10:55:55.068Z,5248
2017-12-01T10:56:54.719Z,5388
2017-12-01T10:57:54.921Z,5444
2017-12-01T10:58:54.716Z,5456
2017-12-01T10:59:54.712Z,5368
2017-12-01T11:00:54.877Z,5248
2017-12-01T11:01:54.659Z,4912
2017-12-01T11:02:54.990Z,4868
2017-12-01T11:03:54.927Z,4856
2017-12-01T11:04:55.178Z,4928
2017-12-01T11:05:54.892Z,4548
2017-12-01T11:06:55.115Z,4340
2017-12-01T11:07:54.851Z,4168
2017-12-01T11:08:54.878Z,3940
2017-12-01T11:09:54.862Z,3868
2017-12-01T11:10:54.553Z,4044
2017-12-01T11:11:54.843Z,4096
2017-12-01T11:12:54.819Z,4024
2017-12-01T11:13:54.804Z,4064
2017-12-01T11:14:54.863Z,4260
2017-12-01T11:15:54.546Z,4400
2017-12-01T11:16:54.816Z,4664
2017-12-01T11:17:54.746Z,4892
2017-12-01T11:18:54.737Z,5216
2017-12-01T11:19:54.961Z,5484
2017-12-01T11:20:54.740Z,5512
2017-12-01T11:21:54.793Z,5408
2017-12-01T11:22:54.746Z,5388
2017-12-01T11:23:54.494Z,5796
2017-12-01T11:24:54.718Z,6044
2017-12-01T11:25:54.428Z,6336
2017-12-01T11:26:54.647Z,6476
2017-12-01T11:27:54.627Z,6544
2017-12-01T11:28:54.618Z,6512
2017-12-01T11:29:55.112Z,6468
2017-12-01T11:30:54.643Z,6436
2017-12-01T11:31:54.710Z,6396
2017-12-01T11:32:55.120Z,6404
2017-12-01T11:33:54.820Z,6636
2017-12-01T11:34:54.543Z,6872
2017-12-01T11:35:54.524Z,6944
2017-12-01T11:36:54.588Z,7012
2017-12-01T11:37:54.467Z,7120
2017-12-01T11:38:54.237Z,7260
2017-12-01T11:39:54.498Z,7336
2017-12-01T11:40:54.546Z,7564
2017-12-01T11:41:54.502Z,7676
2017-12-01T11:42:54.520Z,7728
2017-12-01T11:43:54.236Z,7688
2017-12-01T11:44:54.444Z,7608
2017-12-01T11:45:54.183Z,7696
2017-12-01T11:46:54.387Z,7828
2017-12-01T11:47:54.605Z,7856
2017-12-01T11:48:54.378Z,7832
2017-12-01T11:49:54.361Z,7732
2017-12-01T11:50:54.324Z,7672
2017-12-01T11:51:54.294Z,7616
2017-12-01T11:52:54.309Z,7548
2017-12-01T11:53:54.358Z,7548
2017-12-01T11:54:54.286Z,7524
2017-12-01T11:55:54.307Z,7432
2017-12-01T11:56:54.287Z,7356
2017-12-01T11:57:54.274Z,7264
2017-12-01T11:58:54.213Z,7160
2017-12-01T11:59:53.969Z,7000
2017-12-01T12:00:53.973Z,6824
2017-12-01T12:01:54.201Z,6656
2017-12-01T12:02:54.222Z,6508
2017-12-01T12:03:54.240Z,6384
2017-12-01T12:04:54.168Z,6276
2017-12-01T12:05:54.168Z,6200
2017-12-01T12:06:53.905Z,6076
2017-12-01T12:07:54.123Z,6000
2017-12-01T12:08:54.128Z,5884
2017-12-01T12:09:54.106Z,5892
2017-12-01T12:10:53.836Z,5808
2017-12-01T12:11:54.081Z,5728
2017-12-01T12:12:53.823Z,5592
2017-12-01T12:13:54.068Z,5480
2017-12-01T12:14:54.119Z,5344
2017-12-01T12:15:54.045Z,5200
2017-12-01T12:16:54.062Z,5096
2017-12-01T12:17:54.034Z,5004
2017-12-01T12:18:53.742Z,4900
2017-12-01T12:19:54.014Z,4808
2017-12-01T12:20:53.996Z,4708
2017-12-01T12:21:53.719Z,4616
2017-12-01T12:22:53.973Z,4584
2017-12-01T12:23:53.956Z,4592
2017-12-01T12:24:53.951Z,4532
2017-12-01T12:25:53.953Z,4444
2017-12-01T12:26:53.936Z,4412
2017-12-01T12:27:53.922Z,4376
2017-12-01T12:28:53.645Z,4364
2017-12-01T12:29:53.636Z,4360
2017-12-01T12:30:53.871Z,4416
2017-12-01T12:31:53.869Z,4484
2017-12-01T12:32:53.924Z,4560
2017-12-01T12:33:53.572Z,4624
2017-12-01T12:34:53.816Z,4640
2017-12-01T12:35:53.840Z,4628
2017-12-01T12:36:53.812Z,4568
2017-12-01T12:37:53.892Z,4504
2017-12-01T12:38:53.952Z,4444
2017-12-01T12:39:53.797Z,4376
2017-12-01T12:40:53.776Z,4356
2017-12-01T12:41:53.780Z,4356
2017-12-01T12:42:53.506Z,4396
2017-12-01T12:43:53.746Z,4424
2017-12-01T12:44:53.786Z,4428
2017-12-01T12:45:53.698Z,4404
2017-12-01T12:46:53.717Z,4360
2017-12-01T12:47:53.669Z,4284
2017-12-01T12:48:53.661Z,4184
2017-12-01T12:49:53.681Z,4044
2017-12-01T12:50:53.640Z,3936
2017-12-01T12:51:53.655Z,3844
2017-12-01T12:52:53.633Z,3752
2017-12-01T12:53:53.644Z,3676
2017-12-01T12:54:53.595Z,3604
2017-12-01T12:55:53.589Z,3540
2017-12-01T12:56:53.574Z,3480
2017-12-01T12:57:53.562Z,3460
2017-12-01T12:58:53.566Z,3420
2017-12-01T12:59:53.548Z,3400
2017-12-01T13:00:53.510Z,3424
2017-12-01T13:01:53.503Z,3436
2017-12-01T13:02:53.747Z,3440
2017-12-01T13:03:53.546Z,3440
2017-12-01T13:04:53.226Z,3472
2017-12-01T13:05:53.465Z,3540
2017-12-01T13:06:53.246Z,3588
2017-12-01T13:07:53.437Z,3644
2017-12-01T13:08:53.422Z,3700
2017-12-01T13:09:53.209Z,3740
2017-12-01T13:10:53.405Z,3772
2017-12-01T13:11:53.402Z,3816
2017-12-01T13:12:53.375Z,3872
2017-12-01T13:13:53.361Z,3944
2017-12-01T13:14:53.343Z,4040
2017-12-01T13:15:53.334Z,4124
2017-12-01T13:16:53.349Z,4232
2017-12-01T13:17:53.325Z,4296
2017-12-01T13:18:53.057Z,4340
2017-12-01T13:19:53.295Z,4376
2017-12-01T13:20:53.278Z,4396
2017-12-01T13:21:53.005Z,4432
2017-12-01T13:22:53.246Z,4480
2017-12-01T13:23:53.246Z,4512
2017-12-01T13:24:52.961Z,4544
2017-12-01T13:25:53.216Z,4548
2017-12-01T13:26:52.954Z,4548
2017-12-01T13:27:53.187Z,4504
2017-12-01T13:28:53.174Z,4460
2017-12-01T13:29:52.670Z,4452
2017-12-01T13:30:53.167Z,4460
2017-12-01T13:31:52.917Z,4484
2017-12-01T13:32:53.127Z,4556
2017-12-01T13:33:53.105Z,4536
2017-12-01T13:34:52.835Z,4568
2017-12-01T13:35:53.127Z,4516
2017-12-01T13:36:53.096Z,4476
2017-12-01T13:37:53.051Z,4420
2017-12-01T13:38:53.059Z,4352
2017-12-01T13:39:53.052Z,4260
2017-12-01T13:40:53.017Z,4196
2017-12-01T13:41:53.031Z,4152
2017-12-01T13:42:52.802Z,4104
2017-12-01T13:43:52.987Z,4052
2017-12-01T13:44:52.980Z,3988
2017-12-01T13:45:52.972Z,3896
2017-12-01T13:46:52.998Z,3784
2017-12-01T13:47:52.927Z,3688
2017-12-01T13:48:52.667Z,3592
2017-12-01T13:49:52.920Z,3500
2017-12-01T13:50:52.640Z,3420
2017-12-01T13:51:52.890Z,3356
2017-12-01T13:52:52.884Z,3284
2017-12-01T13:53:52.629Z,3220
2017-12-01T13:54:52.856Z,3156
2017-12-01T13:55:52.843Z,3080
2017-12-01T13:56:52.841Z,3000
2017-12-01T13:57:52.863Z,2916
2017-12-01T13:58:52.822Z,2856